Time;durP1;ratioP1;P1;durP2;ratioP2;P2;SDS_P1;SDS_P2;PMS_P1;PMS_P2;Temp;Humidity;BMP_temperature;BMP_pressure;BME280_temperature;BME280_humidity;BME280_pressure;Samples;Min_cycle;Max_cycle;Signal;HPM_P1;HPM_P2
2022/01/01 00:01:25;;;;;;;234.97;169.47;;;;;;;5.35;97.41;97737.72;5107445;28;20225;-70
2022/01/01 00:03:52;;;;;;;234.30;179.63;;;;;;;5.25;98.03;97736.50;5099853;28;20209;-69
2022/01/01 00:06:20;;;;;;;221.27;175.83;;;;;;;5.28;98.07;97731.13;5094222;28;20206;-69
2022/01/01 00:08:46;;;;;;;240.70;193.17;;;;;;;5.23;97.84;97731.38;5108372;28;20206;-70
2022/01/01 00:11:13;;;;;;;260.80;208.87;;;;;;;5.17;97.64;97725.63;5094924;28;20511;-69
2022/01/01 00:13:39;;;;;;;270.37;211.47;;;;;;;5.19;98.32;97729.00;5110212;28;20205;-69
2022/01/01 00:16:09;;;;;;;293.83;241.63;;;;;;;5.11;97.65;97733.78;5105964;28;20214;-71
2022/01/01 00:18:35;;;;;;;300.60;247.90;;;;;;;5.20;98.28;97725.44;5102784;28;20212;-70
2022/01/01 00:21:02;;;;;;;344.97;283.67;;;;;;;5.14;98.24;97726.59;5100826;28;20228;-70
2022/01/01 00:23:30;;;;;;;290.80;240.10;;;;;;;5.22;98.05;97721.81;5111995;28;20227;-69
2022/01/01 00:25:56;;;;;;;365.90;301.30;;;;;;;5.08;99.21;97718.22;5106551;28;20215;-68
2022/01/01 00:28:22;;;;;;;327.77;262.90;;;;;;;5.06;98.48;97720.09;5110766;28;20208;-69
2022/01/01 00:30:49;;;;;;;343.00;279.73;;;;;;;5.01;98.47;97715.94;5114785;28;20213;-70
2022/01/01 00:33:15;;;;;;;332.00;267.77;;;;;;;5.08;98.25;97726.09;5097626;28;20202;-68
2022/01/01 00:35:42;;;;;;;358.83;290.67;;;;;;;4.91;99.08;97725.25;5103557;28;20523;-70
2022/01/01 00:38:09;;;;;;;368.70;292.40;;;;;;;4.85;99.54;97719.50;5098818;28;20219;-67
2022/01/01 00:40:36;;;;;;;356.07;286.80;;;;;;;4.85;99.84;97720.31;5109635;28;20227;-71
2022/01/01 00:43:03;;;;;;;316.70;258.10;;;;;;;4.86;99.31;97716.78;5111069;28;20632;-68
2022/01/01 00:45:30;;;;;;;330.60;265.20;;;;;;;4.84;98.92;97717.78;5095158;28;20213;-69
2022/01/01 00:47:56;;;;;;;326.10;259.53;;;;;;;4.81;99.26;97721.44;5113192;28;20244;-70
2022/01/01 00:50:23;;;;;;;316.07;255.73;;;;;;;4.73;98.61;97715.75;5099209;28;20204;-69
2022/01/01 00:52:51;;;;;;;325.63;256.57;;;;;;;4.72;99.46;97713.19;5113236;28;20505;-69
2022/01/01 00:55:19;;;;;;;261.13;207.70;;;;;;;4.81;98.91;97717.94;5110909;28;20205;-68
2022/01/01 00:57:47;;;;;;;296.87;237.80;;;;;;;4.64;98.97;97721.44;5101047;28;20274;-71
2022/01/01 01:00:14;;;;;;;246.63;192.33;;;;;;;4.63;98.39;97717.16;5094486;28;20229;-70
2022/01/01 01:02:41;;;;;;;233.67;180.20;;;;;;;4.50;99.04;97718.69;5104530;28;20198;-70
2022/01/01 01:05:08;;;;;;;221.00;172.80;;;;;;;4.47;98.68;97724.09;5098623;28;20206;-68
2022/01/01 01:07:34;;;;;;;227.17;177.63;;;;;;;4.46;99.42;97722.44;5094033;28;20209;-70
2022/01/01 01:10:01;;;;;;;202.70;158.53;;;;;;;4.52;99.00;97719.47;5094930;28;20212;-68
2022/01/01 01:12:37;;;;;;;212.23;163.90;;;;;;;4.48;99.05;97725.81;5097959;28;20618;-70
2022/01/01 01:15:06;;;;;;;221.80;160.07;;;;;;;4.45;99.07;97728.59;5096835;28;20198;-69
2022/01/01 01:17:32;;;;;;;191.27;148.07;;;;;;;4.50;98.77;97723.94;5093905;28;20213;-69
2022/01/01 01:19:59;;;;;;;185.03;142.93;;;;;;;4.46;99.89;97732.91;5107590;28;20201;-71
2022/01/01 01:22:26;;;;;;;187.90;150.27;;;;;;;4.37;99.62;97728.13;5115547;28;20235;-69
2022/01/01 01:24:54;;;;;;;190.60;150.70;;;;;;;4.33;99.88;97732.66;5109756;28;20193;-71
2022/01/01 01:27:20;;;;;;;157.93;133.03;;;;;;;4.37;99.35;97731.59;5112813;28;20292;-69
2022/01/01 01:29:47;;;;;;;160.07;129.33;;;;;;;4.36;99.34;97740.38;5098657;28;20190;-69
2022/01/01 01:32:14;;;;;;;145.47;113.23;;;;;;;4.44;99.81;97742.59;5115628;28;20240;-69
2022/01/01 01:34:41;;;;;;;135.37;109.17;;;;;;;4.53;99.17;97745.56;5110087;28;20197;-70
2022/01/01 01:37:07;;;;;;;161.07;125.60;;;;;;;4.48;100.00;97742.38;5107697;28;20201;-70
2022/01/01 01:39:34;;;;;;;155.17;126.83;;;;;;;4.43;98.57;97740.91;5101477;28;20202;-70
2022/01/01 01:42:00;;;;;;;154.60;123.23;;;;;;;4.40;98.69;97743.66;5112588;28;20222;-69
2022/01/01 01:44:30;;;;;;;124.70;99.47;;;;;;;4.46;99.19;97740.75;5103381;28;20216;-70
2022/01/01 01:46:56;;;;;;;121.70;97.10;;;;;;;4.53;99.18;97739.53;5111420;28;20407;-70
2022/01/01 01:49:24;;;;;;;121.57;95.43;;;;;;;4.58;99.17;97747.13;5112213;28;20209;-70
2022/01/01 01:51:51;;;;;;;151.10;117.97;;;;;;;4.59;99.61;97744.44;5107512;28;20201;-69
2022/01/01 01:54:18;;;;;;;142.47;111.63;;;;;;;4.58;100.00;97754.97;5113288;28;20200;-70
2022/01/01 01:56:45;;;;;;;125.70;101.67;;;;;;;4.56;100.00;97748.97;5108424;28;20201;-69
2022/01/01 01:59:11;;;;;;;99.33;81.97;;;;;;;4.55;99.63;97753.38;5107220;28;20201;-71
2022/01/01 02:01:39;;;;;;;94.03;76.40;;;;;;;4.64;99.39;97750.25;5103578;28;20300;-71
2022/01/01 02:04:05;;;;;;;94.27;78.33;;;;;;;4.66;99.36;97745.81;5091267;28;20206;-68
2022/01/01 02:06:34;;;;;;;99.37;81.87;;;;;;;4.59;99.40;97754.91;5096444;28;20657;-68
2022/01/01 02:09:00;;;;;;;119.30;97.40;;;;;;;4.50;100.00;97760.59;5102272;28;20206;-68
2022/01/01 02:11:28;;;;;;;110.93;90.37;;;;;;;4.46;98.88;97753.84;5088856;28;20199;-71
2022/01/01 02:14:03;;;;;;;93.83;73.90;;;;;;;4.47;99.72;97755.53;5097523;28;20212;-70
2022/01/01 02:16:52;;;;;;;95.07;73.30;;;;;;;4.40;98.98;97756.75;5096156;28;20251;-68
2022/01/01 02:19:24;;;;;;;92.10;70.97;;;;;;;4.46;100.00;97759.09;5095282;28;20247;-69
2022/01/01 02:21:53;;;;;;;95.37;76.47;;;;;;;4.43;99.39;97764.47;5096112;28;20225;-68
2022/01/01 02:24:20;;;;;;;111.73;89.37;;;;;;;4.41;98.55;97761.94;5093861;28;20209;-70
2022/01/01 02:26:46;;;;;;;124.83;96.97;;;;;;;4.31;99.31;97770.34;5101107;28;20218;-68
2022/01/01 02:29:13;;;;;;;125.20;97.33;;;;;;;4.26;100.00;97767.94;5109421;28;20198;-69
2022/01/01 02:31:39;;;;;;;121.93;96.37;;;;;;;4.32;99.48;97774.66;5117271;28;20201;-70
2022/01/01 02:34:07;;;;;;;128.57;98.87;;;;;;;4.34;99.27;97765.78;5093663;28;20206;-69
2022/01/01 02:36:35;;;;;;;133.87;102.80;;;;;;;4.36;99.03;97768.31;5101041;28;20500;-70
2022/01/01 02:39:10;;;;;;;126.00;98.23;;;;;;;4.42;99.11;97768.88;5115067;28;20214;-70
2022/01/01 02:41:37;;;;;;;137.20;107.90;;;;;;;4.41;99.07;97766.31;5110015;28;20205;-71
2022/01/01 02:44:05;;;;;;;142.43;110.37;;;;;;;4.31;98.47;97767.72;5100226;28;20602;-69
2022/01/01 02:46:32;;;;;;;139.63;108.13;;;;;;;4.27;98.74;97758.31;5110308;28;20605;-70
2022/01/01 02:48:58;;;;;;;133.57;104.83;;;;;;;4.30;98.92;97768.63;5114207;28;20561;-71
2022/01/01 02:51:25;;;;;;;135.63;108.57;;;;;;;4.19;99.82;97755.22;5089493;28;20201;-69
2022/01/01 02:53:51;;;;;;;127.07;100.47;;;;;;;4.15;100.00;97770.25;5114627;28;20284;-68
2022/01/01 02:56:19;;;;;;;133.43;103.40;;;;;;;4.07;99.98;97764.56;5117706;28;20217;-70
2022/01/01 02:58:46;;;;;;;102.23;78.77;;;;;;;4.13;99.55;97766.03;5115199;28;20208;-68
2022/01/01 03:01:12;;;;;;;85.80;67.00;;;;;;;4.15;99.27;97769.38;5090553;28;20225;-68
2022/01/01 03:03:39;;;;;;;71.00;57.47;;;;;;;4.20;99.05;97764.78;5102774;28;20194;-69
2022/01/01 03:06:06;;;;;;;62.80;53.07;;;;;;;4.17;98.96;97765.81;5105212;28;20212;-70
2022/01/01 03:08:32;;;;;;;56.27;47.93;;;;;;;4.11;99.39;97768.69;5107304;28;20229;-69
2022/01/01 03:11:02;;;;;;;60.23;47.87;;;;;;;4.09;99.74;97761.84;5113895;28;20200;-71
2022/01/01 03:13:30;;;;;;;56.63;44.60;;;;;;;4.08;99.82;97758.38;5102248;28;20198;-70
2022/01/01 03:15:56;;;;;;;55.10;44.37;;;;;;;4.04;99.33;97763.88;5097712;28;20202;-70
2022/01/01 03:18:23;;;;;;;58.17;47.27;;;;;;;4.16;99.55;97758.88;5109227;28;20643;-69
2022/01/01 03:20:49;;;;;;;59.67;45.63;;;;;;;4.03;99.50;97759.56;5116603;28;20205;-68
2022/01/01 03:23:16;;;;;;;56.30;45.13;;;;;;;4.03;98.94;97768.25;5118858;28;20213;-69
2022/01/01 03:25:42;;;;;;;73.83;58.13;;;;;;;4.08;99.01;97758.38;5108665;28;20217;-70
2022/01/01 03:28:09;;;;;;;75.43;57.73;;;;;;;4.09;98.93;97764.47;5114036;28;20205;-68
2022/01/01 03:30:37;;;;;;;82.67;65.23;;;;;;;4.03;98.81;97764.78;5105313;28;20202;-69
2022/01/01 03:33:03;;;;;;;80.63;62.20;;;;;;;4.03;99.01;97764.78;5111017;28;20205;-69
2022/01/01 03:35:30;;;;;;;72.00;53.70;;;;;;;4.08;99.41;97766.25;5102419;28;20211;-69
2022/01/01 03:37:56;;;;;;;71.90;55.03;;;;;;;4.07;99.30;97763.72;5113647;28;20209;-71
2022/01/01 03:40:23;;;;;;;71.10;57.40;;;;;;;3.98;99.75;97763.22;5112970;28;20250;-70
2022/01/01 03:42:49;;;;;;;57.77;47.10;;;;;;;4.06;99.42;97764.63;5121677;28;20225;-70
2022/01/01 03:45:16;;;;;;;69.77;56.30;;;;;;;4.08;99.22;97765.38;5115990;28;20630;-70
2022/01/01 03:47:44;;;;;;;59.77;48.90;;;;;;;3.91;100.00;97759.22;5123433;28;20224;-72
2022/01/01 03:50:11;;;;;;;40.93;34.97;;;;;;;4.04;99.29;97756.03;5126856;28;20201;-69
2022/01/01 03:52:41;;;;;;;44.77;37.83;;;;;;;3.94;100.00;97772.16;5130668;28;20201;-69
2022/01/01 03:55:08;;;;;;;51.30;41.07;;;;;;;3.86;99.28;97768.25;5130151;28;20220;-69
2022/01/01 03:57:35;;;;;;;37.77;31.13;;;;;;;3.86;98.49;97776.91;5133034;28;20204;-68
2022/01/01 04:00:02;;;;;;;33.63;28.13;;;;;;;3.85;99.14;97769.16;5120812;28;20542;-71
2022/01/01 04:02:28;;;;;;;31.10;27.20;;;;;;;3.85;99.48;97763.91;5104768;28;20245;-69
2022/01/01 04:04:56;;;;;;;38.57;32.87;;;;;;;3.76;99.98;97767.81;5114537;28;20217;-70
2022/01/01 04:07:23;;;;;;;38.03;32.37;;;;;;;3.77;100.00;97772.13;5102301;28;20200;-71
2022/01/01 04:09:49;;;;;;;32.30;26.77;;;;;;;3.85;99.21;97772.63;5103923;28;20547;-71
2022/01/01 04:12:15;;;;;;;36.80;29.83;;;;;;;3.75;99.75;97774.00;5114091;28;20194;-69
2022/01/01 04:14:43;;;;;;;40.57;33.57;;;;;;;3.72;99.28;97773.28;5108514;28;20198;-71
2022/01/01 04:17:11;;;;;;;51.27;41.47;;;;;;;3.75;99.46;97787.06;5098850;28;20213;-68
2022/01/01 04:19:39;;;;;;;45.87;39.27;;;;;;;3.67;100.00;97777.88;5101763;28;20197;-71
2022/01/01 04:22:08;;;;;;;64.33;50.43;;;;;;;3.63;100.00;97769.34;5105991;28;20243;-71
2022/01/01 04:24:35;;;;;;;74.47;59.50;;;;;;;3.60;100.00;97772.09;5116232;28;20190;-70
2022/01/01 04:27:02;;;;;;;80.30;61.07;;;;;;;3.55;100.00;97771.44;5115791;28;20213;-70
2022/01/01 04:29:29;;;;;;;84.23;64.10;;;;;;;3.57;100.00;97780.09;5109768;28;20212;-69
2022/01/01 04:31:55;;;;;;;65.00;54.97;;;;;;;3.64;100.00;97789.34;5106217;28;20228;-71
2022/01/01 04:34:22;;;;;;;68.00;54.90;;;;;;;3.59;100.00;97786.09;5102449;28;20220;-71
2022/01/01 04:36:55;;;;;;;64.20;49.47;;;;;;;3.68;100.00;97779.59;5106904;28;20208;-69
2022/01/01 04:39:23;;;;;;;59.33;49.60;;;;;;;3.59;100.00;97775.63;5102348;28;20213;-68
2022/01/01 04:41:49;;;;;;;66.90;48.67;;;;;;;3.60;100.00;97785.19;5107738;28;20220;-69
2022/01/01 04:44:16;;;;;;;58.97;47.27;;;;;;;3.65;100.00;97790.19;5100742;28;20197;-71
2022/01/01 04:46:42;;;;;;;55.63;43.93;;;;;;;3.61;100.00;97784.25;5098108;28;20236;-72
2022/01/01 04:49:09;;;;;;;60.93;47.10;;;;;;;3.60;100.00;97781.72;5130237;28;20201;-72
2022/01/01 04:51:35;;;;;;;57.60;47.13;;;;;;;3.59;100.00;97770.38;5119926;28;20201;-69
2022/01/01 04:54:02;;;;;;;59.17;46.63;;;;;;;3.60;100.00;97772.09;5108101;28;20221;-69
2022/01/01 04:56:33;;;;;;;58.17;45.07;;;;;;;3.56;100.00;97786.22;5110916;28;20208;-70
2022/01/01 04:59:02;;;;;;;51.37;42.77;;;;;;;3.55;100.00;97774.06;5123520;28;20212;-69
2022/01/01 05:01:29;;;;;;;45.87;35.73;;;;;;;3.63;100.00;97778.94;5124282;28;20200;-69
2022/01/01 05:03:57;;;;;;;53.07;42.13;;;;;;;3.61;100.00;97768.56;5110441;28;20226;-69
2022/01/01 05:06:23;;;;;;;42.20;33.93;;;;;;;3.63;100.00;97761.47;5117397;28;20197;-69
2022/01/01 05:08:49;;;;;;;36.93;30.27;;;;;;;3.64;100.00;97763.19;5113927;28;20205;-70
2022/01/01 05:11:16;;;;;;;28.17;23.80;;;;;;;3.65;100.00;97762.25;5116927;28;20213;-70
2022/01/01 05:13:44;;;;;;;24.00;18.80;;;;;;;3.64;100.00;97765.81;5112851;28;20276;-71
2022/01/01 05:16:17;;;;;;;22.80;17.57;;;;;;;3.64;100.00;97768.41;5110380;28;20202;-70
2022/01/01 05:18:43;;;;;;;24.60;19.90;;;;;;;3.70;99.87;97762.03;5108827;28;20205;-70
2022/01/01 05:21:09;;;;;;;25.53;20.87;;;;;;;3.63;100.00;97756.25;5119920;28;20205;-72
2022/01/01 05:23:36;;;;;;;31.00;25.10;;;;;;;3.59;100.00;97754.69;5115108;28;20229;-69
2022/01/01 05:26:03;;;;;;;32.20;27.27;;;;;;;3.54;100.00;97756.72;5098344;28;20209;-70
2022/01/01 05:28:29;;;;;;;31.77;23.93;;;;;;;3.61;99.76;97752.88;5116961;28;20204;-71
2022/01/01 05:30:57;;;;;;;37.23;31.20;;;;;;;3.58;100.00;97758.22;5108509;28;20537;-73
2022/01/01 05:33:24;;;;;;;30.83;26.90;;;;;;;3.59;100.00;97756.47;5112342;28;20204;-68
2022/01/01 05:35:50;;;;;;;21.43;16.10;;;;;;;3.62;100.00;97762.41;5109015;28;20622;-72
2022/01/01 05:38:17;;;;;;;17.20;14.37;;;;;;;3.64;100.00;97772.81;5098806;28;20658;-70
2022/01/01 05:40:44;;;;;;;14.10;12.37;;;;;;;3.65;99.90;97777.94;5102776;28;20722;-72
2022/01/01 05:43:13;;;;;;;14.30;12.13;;;;;;;3.65;100.00;97772.72;5114203;28;20232;-71
2022/01/01 05:45:41;;;;;;;17.50;14.43;;;;;;;3.57;99.27;97772.25;5103707;28;20207;-69
2022/01/01 05:48:09;;;;;;;17.23;14.70;;;;;;;3.50;100.00;97765.59;5110416;28;20267;-69
2022/01/01 05:50:35;;;;;;;21.20;18.70;;;;;;;3.50;100.00;97749.91;5104432;28;20205;-70
2022/01/01 05:53:02;;;;;;;23.83;20.83;;;;;;;3.52;100.00;97748.06;5117866;28;20216;-71
2022/01/01 05:55:28;;;;;;;26.80;20.87;;;;;;;3.49;100.00;97749.06;5103926;28;20287;-72
2022/01/01 05:57:55;;;;;;;21.90;19.53;;;;;;;3.42;100.00;97744.19;5097780;28;20308;-69
2022/01/01 06:00:21;;;;;;;25.90;21.00;;;;;;;3.39;100.00;97747.81;5097256;28;20216;-71
2022/01/01 06:02:48;;;;;;;27.07;22.83;;;;;;;3.35;100.00;97746.25;5117653;28;20225;-69
2022/01/01 06:05:15;;;;;;;30.70;25.10;;;;;;;3.32;100.00;97749.03;5113804;28;20247;-71
2022/01/01 06:07:42;;;;;;;29.60;24.63;;;;;;;3.33;99.83;97742.03;5105754;28;20224;-71
2022/01/01 06:10:09;;;;;;;31.00;25.20;;;;;;;3.38;100.00;97743.50;5097900;28;20211;-70
2022/01/01 06:12:38;;;;;;;32.37;24.83;;;;;;;3.41;99.88;97745.09;5097309;28;20204;-69
2022/01/01 06:15:05;;;;;;;29.73;26.03;;;;;;;3.35;100.00;97751.50;5111751;28;20209;-71
2022/01/01 06:17:32;;;;;;;34.20;29.70;;;;;;;3.31;99.81;97751.69;5118005;28;20219;-68
2022/01/01 06:19:59;;;;;;;34.03;29.83;;;;;;;3.37;99.61;97752.25;5104208;28;20216;-72
2022/01/01 06:22:27;;;;;;;38.90;30.77;;;;;;;3.40;99.68;97751.28;5097215;28;20220;-68
2022/01/01 06:24:53;;;;;;;46.33;34.20;;;;;;;3.38;99.71;97740.88;5112699;28;20197;-70
2022/01/01 06:27:19;;;;;;;50.00;37.27;;;;;;;3.31;100.00;97743.84;5095320;28;20208;-69
2022/01/01 06:29:46;;;;;;;48.80;39.00;;;;;;;3.29;100.00;97745.69;5113501;28;20202;-69
2022/01/01 06:32:13;;;;;;;46.10;37.87;;;;;;;3.29;100.00;97751.78;5110891;28;20208;-69
2022/01/01 06:34:39;;;;;;;48.73;39.27;;;;;;;3.24;99.76;97758.97;5114099;28;20207;-70
2022/01/01 06:37:06;;;;;;;43.17;35.37;;;;;;;3.25;100.00;97765.06;5106145;28;20212;-71
2022/01/01 06:39:34;;;;;;;49.33;40.80;;;;;;;3.22;100.00;97770.44;5101028;28;20206;-71
2022/01/01 06:42:00;;;;;;;50.87;40.83;;;;;;;3.20;100.00;97772.25;5106191;28;20520;-70
2022/01/01 06:44:27;;;;;;;49.40;40.90;;;;;;;3.22;100.00;97773.03;5113996;28;20666;-70
2022/01/01 06:46:53;;;;;;;52.13;42.90;;;;;;;3.29;100.00;97774.47;5106632;28;20575;-71
2022/01/01 06:49:20;;;;;;;60.07;47.67;;;;;;;3.32;100.00;97782.16;5108741;28;20209;-70
2022/01/01 06:51:47;;;;;;;63.47;50.43;;;;;;;3.24;100.00;97785.13;5106991;28;20200;-71
2022/01/01 06:54:13;;;;;;;65.30;53.07;;;;;;;3.21;100.00;97781.78;5101242;28;20202;-71
2022/01/01 06:56:41;;;;;;;82.90;58.27;;;;;;;3.18;100.00;97777.56;5106858;28;20635;-69
2022/01/01 06:59:08;;;;;;;72.97;58.03;;;;;;;3.16;100.00;97775.91;5116881;28;20633;-71
2022/01/01 07:01:35;;;;;;;77.30;55.27;;;;;;;3.10;100.00;97782.28;5104345;28;20253;-70
2022/01/01 07:04:01;;;;;;;71.03;55.67;;;;;;;3.11;100.00;97783.13;5118781;28;20220;-69
2022/01/01 07:06:29;;;;;;;74.43;57.60;;;;;;;3.04;99.68;97797.41;5118879;28;20189;-71
2022/01/01 07:08:55;;;;;;;66.23;52.27;;;;;;;3.03;100.00;97793.94;5111258;28;20197;-71
2022/01/01 07:11:22;;;;;;;64.20;49.80;;;;;;;3.07;99.97;97792.88;5096706;28;20201;-71
2022/01/01 07:13:50;;;;;;;57.57;46.17;;;;;;;3.00;100.00;97797.53;5115381;28;20217;-69
2022/01/01 07:16:17;;;;;;;48.13;39.50;;;;;;;2.94;100.00;97807.41;5104895;28;20613;-69
2022/01/01 07:18:44;;;;;;;46.87;37.47;;;;;;;2.99;100.00;97810.66;5104164;28;20209;-72
2022/01/01 07:21:10;;;;;;;41.17;32.47;;;;;;;2.96;99.75;97810.81;5112235;28;20214;-72
2022/01/01 07:23:37;;;;;;;28.70;24.90;;;;;;;3.00;100.00;97812.38;5116167;28;20228;-71
2022/01/01 07:26:03;;;;;;;19.03;15.20;;;;;;;3.04;100.00;97805.25;5117039;28;20216;-72
2022/01/01 07:28:30;;;;;;;15.67;14.00;;;;;;;3.00;100.00;97818.44;5096628;28;20535;-71
2022/01/01 07:30:58;;;;;;;14.00;12.10;;;;;;;3.00;100.00;97813.22;5106723;28;20535;-69
2022/01/01 07:33:24;;;;;;;14.33;9.63;;;;;;;3.01;100.00;97820.13;5105697;28;20201;-69
2022/01/01 07:35:53;;;;;;;15.53;13.37;;;;;;;3.07;100.00;97815.56;5103108;28;20200;-69
2022/01/01 07:38:20;;;;;;;18.90;16.80;;;;;;;3.01;100.00;97816.69;5084530;28;20292;-72
2022/01/01 07:40:46;;;;;;;16.93;14.43;;;;;;;3.01;100.00;97825.34;5099518;28;20197;-70
2022/01/01 07:43:13;;;;;;;16.20;13.83;;;;;;;3.06;100.00;97821.69;5109633;28;20236;-71
2022/01/01 07:45:40;;;;;;;19.30;15.93;;;;;;;3.12;100.00;97818.81;5100363;28;20205;-69
2022/01/01 07:48:08;;;;;;;20.37;17.27;;;;;;;3.06;100.00;97816.47;5109746;28;20239;-70
2022/01/01 07:50:35;;;;;;;22.77;17.17;;;;;;;3.09;100.00;97818.94;5106655;28;20193;-71
2022/01/01 07:53:02;;;;;;;19.00;16.87;;;;;;;3.08;100.00;97817.25;5112206;28;20192;-69
2022/01/01 07:55:28;;;;;;;22.83;18.60;;;;;;;3.14;99.71;97809.97;5095920;28;20219;-70
2022/01/01 07:57:55;;;;;;;20.37;18.17;;;;;;;3.16;100.00;97813.38;5103748;28;20220;-71
2022/01/01 08:00:21;;;;;;;26.57;20.07;;;;;;;3.16;100.00;97807.28;5108897;28;20271;-69
2022/01/01 08:02:48;;;;;;;38.87;32.50;;;;;;;3.24;100.00;97805.19;5116010;28;20594;-72
2022/01/01 08:05:17;;;;;;;62.10;50.57;;;;;;;3.31;100.00;97804.84;5111129;28;20208;-71
2022/01/01 08:07:44;;;;;;;72.53;58.73;;;;;;;3.31;100.00;97804.84;5104210;28;20208;-71
2022/01/01 08:10:11;;;;;;;80.13;62.50;;;;;;;3.33;100.00;97810.81;5112319;28;20212;-71
2022/01/01 08:12:38;;;;;;;86.03;69.27;;;;;;;3.37;98.36;97806.31;5116097;28;20212;-71
2022/01/01 08:15:06;;;;;;;83.80;69.87;;;;;;;3.34;97.51;97809.91;5107367;28;20283;-71
2022/01/01 08:17:32;;;;;;;90.03;69.90;;;;;;;3.23;98.32;97809.56;5111329;28;20208;-69
2022/01/01 08:19:59;;;;;;;89.87;72.47;;;;;;;3.17;99.27;97809.00;5108538;28;20577;-72
2022/01/01 08:22:27;;;;;;;89.07;69.07;;;;;;;3.06;99.26;97800.78;5102120;28;20209;-71
2022/01/01 08:24:53;;;;;;;109.80;69.10;;;;;;;3.10;98.37;97802.34;5108357;28;20208;-71
2022/01/01 08:27:20;;;;;;;99.30;71.13;;;;;;;3.06;100.00;97801.63;5106084;28;20212;-70
2022/01/01 08:29:46;;;;;;;114.03;67.53;;;;;;;3.07;98.90;97797.25;5111534;28;20207;-72
2022/01/01 08:32:13;;;;;;;100.73;66.33;;;;;;;3.00;100.00;97800.16;5105989;28;20208;-69
2022/01/01 08:34:39;;;;;;;92.00;66.23;;;;;;;3.05;100.00;97799.09;5112006;28;20197;-69
2022/01/01 08:37:05;;;;;;;114.97;60.10;;;;;;;3.05;99.38;97788.66;5107337;28;20669;-71
2022/01/01 08:39:33;;;;;;;95.90;59.10;;;;;;;3.06;100.00;97790.31;5101110;28;20604;-69
2022/01/01 08:42:00;;;;;;;105.87;60.47;;;;;;;3.11;100.00;97793.59;5105864;28;20200;-71
2022/01/01 08:44:26;;;;;;;117.33;61.63;;;;;;;3.14;99.74;97783.84;5115548;28;20225;-72
2022/01/01 08:46:53;;;;;;;87.67;59.00;;;;;;;3.17;100.00;97781.09;5099927;28;20260;-71
2022/01/01 08:49:19;;;;;;;92.10;60.00;;;;;;;3.19;100.00;97786.25;5116886;28;20208;-69
2022/01/01 08:51:46;;;;;;;75.80;58.07;;;;;;;3.26;100.00;97796.34;5111230;28;20643;-69
2022/01/01 08:54:14;;;;;;;72.83;55.30;;;;;;;3.28;99.90;97791.06;5116670;28;20196;-70
2022/01/01 08:56:44;;;;;;;65.23;55.60;;;;;;;3.41;99.68;97793.03;5108434;28;20519;-71
2022/01/01 08:59:10;;;;;;;62.70;54.83;;;;;;;3.50;100.00;97790.00;5116803;28;20216;-70
2022/01/01 09:01:37;;;;;;;61.43;52.57;;;;;;;3.71;100.00;97784.66;5101326;28;20192;-69
2022/01/01 09:04:05;;;;;;;61.47;52.40;;;;;;;3.74;98.54;97780.13;5117134;28;20243;-69
2022/01/01 09:06:32;;;;;;;57.20;51.00;;;;;;;3.97;98.37;97776.38;5102457;28;20209;-71
2022/01/01 09:08:58;;;;;;;57.40;51.27;;;;;;;4.39;96.52;97786.53;5103761;28;20200;-70
2022/01/01 09:11:25;;;;;;;55.03;49.23;;;;;;;4.41;94.77;97790.75;5102091;28;20208;-72
2022/01/01 09:13:53;;;;;;;54.77;47.83;;;;;;;4.59;94.73;97794.22;5105496;28;20274;-69
2022/01/01 09:16:22;;;;;;;52.70;47.27;;;;;;;4.70;93.72;97798.91;5116551;28;20212;-71
2022/01/01 09:18:49;;;;;;;53.40;47.33;;;;;;;4.66;93.85;97805.22;5104298;28;20270;-69
2022/01/01 09:21:17;;;;;;;54.07;48.23;;;;;;;4.75;95.20;97808.19;5107011;28;20235;-69
2022/01/01 09:23:44;;;;;;;53.60;48.00;;;;;;;4.87;93.72;97812.81;5136946;28;20244;-71
2022/01/01 09:26:10;;;;;;;60.33;49.57;;;;;;;4.78;93.08;97815.91;5137970;28;20200;-69
2022/01/01 09:28:37;;;;;;;53.13;47.63;;;;;;;4.81;95.26;97818.38;5107603;28;20316;-69
2022/01/01 09:31:05;;;;;;;56.07;49.97;;;;;;;5.01;93.84;97820.81;5101627;28;20205;-72
2022/01/01 09:33:32;;;;;;;53.77;48.17;;;;;;;5.16;92.25;97813.06;5092892;28;20205;-69
2022/01/01 09:35:59;;;;;;;52.50;47.30;;;;;;;5.76;89.55;97820.25;5107152;28;20251;-70
2022/01/01 09:38:25;;;;;;;51.57;46.53;;;;;;;5.85;88.63;97816.25;5120455;28;20205;-71
2022/01/01 09:40:54;;;;;;;51.00;45.77;;;;;;;6.12;87.32;97819.16;5108475;28;20209;-71
2022/01/01 09:43:21;;;;;;;49.43;44.47;;;;;;;6.55;85.32;97820.16;5101929;28;20249;-70
2022/01/01 09:45:49;;;;;;;50.67;45.40;;;;;;;6.89;83.83;97817.22;5101037;28;20198;-68
2022/01/01 09:48:18;;;;;;;48.13;43.33;;;;;;;7.09;83.46;97819.47;5122466;28;20193;-68
2022/01/01 09:50:47;;;;;;;48.03;43.17;;;;;;;7.38;80.97;97813.28;5111380;28;20205;-70
2022/01/01 09:53:13;;;;;;;47.63;42.90;;;;;;;7.77;80.18;97811.72;5119656;28;20185;-71
2022/01/01 09:55:40;;;;;;;46.07;41.37;;;;;;;8.06;79.42;97799.34;5120887;28;20198;-71
2022/01/01 09:58:06;;;;;;;45.60;40.87;;;;;;;8.38;78.15;97808.66;5120813;28;20215;-71
2022/01/01 10:00:33;;;;;;;43.50;39.00;;;;;;;8.47;75.86;97815.94;5122504;28;20188;-70
2022/01/01 10:02:59;;;;;;;37.87;34.07;;;;;;;8.62;75.67;97814.94;5141109;28;20191;-72
2022/01/01 10:05:27;;;;;;;37.93;34.03;;;;;;;8.44;76.36;97811.72;5116037;28;20248;-72
2022/01/01 10:07:54;;;;;;;33.77;30.67;;;;;;;8.56;75.92;97815.34;5110993;28;20231;-70
2022/01/01 10:10:22;;;;;;;34.67;31.38;;;;;;;8.53;74.57;97810.28;5110851;28;20232;-72
2022/01/01 10:12:49;;;;;;;35.47;31.90;;;;;;;8.81;74.81;97819.81;5111428;28;20616;-71
2022/01/01 10:15:16;;;;;;;35.13;31.73;;;;;;;9.23;74.22;97816.03;5103849;28;20577;-71
2022/01/01 10:17:43;;;;;;;35.03;31.60;;;;;;;9.40;74.32;97807.78;5109099;28;20656;-70
2022/01/01 10:20:10;;;;;;;35.13;31.67;;;;;;;9.65;72.28;97805.13;5116016;28;20204;-69
2022/01/01 10:22:39;;;;;;;34.67;31.45;;;;;;;10.10;71.60;97797.47;5099532;28;20301;-70
2022/01/01 10:27:54;;;;;;;30.52;27.70;;;;;;;10.47;68.84;97796.47;5116185;28;20254;-72
2022/01/01 10:30:23;;;;;;;32.33;29.20;;;;;;;10.72;68.00;97796.34;5111367;28;20216;-73
2022/01/01 10:33:07;;;;;;;33.08;29.98;;;;;;;11.28;66.11;97788.47;5113738;28;20636;-70
2022/01/01 10:35:40;;;;;;;32.53;29.52;;;;;;;11.67;65.80;97788.00;5108703;28;20205;-71
2022/01/01 10:38:11;;;;;;;31.08;28.08;;;;;;;11.62;65.37;97787.50;5115101;28;20205;-72
2022/01/01 10:40:37;;;;;;;30.15;27.45;;;;;;;11.54;65.29;97784.66;5108758;28;20208;-70
2022/01/01 10:43:04;;;;;;;29.40;26.73;;;;;;;11.98;63.44;97781.09;5103221;28;20612;-71
2022/01/01 10:45:32;;;;;;;30.27;27.45;;;;;;;12.26;63.09;97787.66;5108823;28;20233;-72
2022/01/01 10:48:22;;;;;;;32.45;29.38;;;;;;;12.25;61.97;97778.03;5109821;28;20230;-70
2022/01/01 10:50:49;;;;;;;30.05;27.35;;;;;;;11.86;63.74;97782.97;5101580;28;20202;-70
2022/01/01 10:53:21;;;;;;;32.00;29.08;;;;;;;12.20;62.42;97780.22;5105666;28;20205;-70
2022/01/01 10:55:55;;;;;;;32.05;29.10;;;;;;;11.65;65.63;97776.69;5108491;28;20208;-73
2022/01/01 10:58:23;;;;;;;31.20;28.40;;;;;;;11.15;67.15;97777.16;5107343;28;20200;-71
2022/01/01 11:00:51;;;;;;;33.60;30.40;;;;;;;10.90;68.17;97778.22;5106826;28;20527;-69
2022/01/01 11:03:18;;;;;;;33.65;30.35;;;;;;;10.33;71.51;97763.13;5108470;28;20205;-71
2022/01/01 11:05:47;;;;;;;37.10;33.53;;;;;;;10.43;70.12;97763.28;5105188;28;20202;-71
2022/01/01 11:08:14;;;;;;;37.65;34.03;;;;;;;10.35;72.68;97755.06;5109549;28;20209;-71
2022/01/01 11:10:43;;;;;;;41.50;37.47;;;;;;;9.92;73.54;97752.91;5092912;28;20201;-72
2022/01/01 11:13:10;;;;;;;42.70;38.60;;;;;;;9.66;74.94;97751.34;5109947;28;20213;-72
2022/01/01 11:15:36;;;;;;;46.23;41.53;;;;;;;9.50;76.12;97748.09;5114163;28;20200;-70
2022/01/01 11:18:03;;;;;;;47.23;42.40;;;;;;;9.41;77.54;97743.47;5103750;28;20202;-71
2022/01/01 11:20:33;;;;;;;47.57;42.60;;;;;;;9.15;78.79;97742.66;5114999;28;20197;-71
2022/01/01 11:23:04;;;;;;;47.53;42.67;;;;;;;9.06;78.81;97739.84;5093212;28;20197;-72